createdAt,value
2023-04-29T05:01:08.649Z,10.58
2023-04-29T05:03:35.878Z,10.59
2023-04-29T05:06:03.389Z,10.59
2023-04-29T05:08:30.426Z,10.60
2023-04-29T05:10:59.886Z,10.61
2023-04-29T05:13:26.842Z,10.63
2023-04-29T05:15:54.258Z,10.65
2023-04-29T05:18:25.871Z,10.63
2023-04-29T05:20:53.045Z,10.65
2023-04-29T05:23:20.065Z,10.63
2023-04-29T05:25:47.596Z,10.63
2023-04-29T05:28:16.521Z,10.63
2023-04-29T05:30:45.271Z,10.64
2023-04-29T05:33:12.477Z,10.65
2023-04-29T05:35:39.953Z,10.62
2023-04-29T05:38:06.843Z,10.62
2023-04-29T05:40:40.747Z,10.57
2023-04-29T05:43:36.959Z,10.58
2023-04-29T05:46:04.825Z,10.58
2023-04-29T05:48:31.397Z,10.59
2023-04-29T05:50:58.808Z,10.59
2023-04-29T05:53:25.930Z,10.62
2023-04-29T05:55:53.372Z,10.63
2023-04-29T05:58:21.420Z,10.66
2023-04-29T06:00:49.630Z,10.65
2023-04-29T06:03:21.564Z,10.66
2023-04-29T06:05:54.742Z,10.66
2023-04-29T06:08:48.281Z,10.63
2023-04-29T06:11:19.994Z,10.65
2023-04-29T06:13:46.734Z,10.66
2023-04-29T06:16:15.618Z,10.64
2023-04-29T06:18:42.348Z,10.63
2023-04-29T06:21:09.666Z,10.65
2023-04-29T06:23:36.458Z,10.66
2023-04-29T06:26:10.852Z,10.68
2023-04-29T06:28:37.540Z,10.67
2023-04-29T06:31:05.283Z,10.68
2023-04-29T06:33:34.053Z,10.66
2023-04-29T06:36:01.442Z,10.65
2023-04-29T06:38:54.040Z,10.67
2023-04-29T06:41:47.659Z,10.69
2023-04-29T06:44:43.828Z,10.74
2023-04-29T06:47:34.888Z,10.76
2023-04-29T06:50:11.991Z,10.77
2023-04-29T06:52:38.959Z,10.80
2023-04-29T06:55:06.858Z,10.82
2023-04-29T06:57:34.133Z,10.85
2023-04-29T07:00:00.880Z,10.84
2023-04-29T07:02:28.220Z,10.86
2023-04-29T07:04:55.439Z,10.86
2023-04-29T07:07:23.333Z,10.88
2023-04-29T07:09:52.636Z,10.91
2023-04-29T07:12:20.753Z,10.91
2023-04-29T07:14:47.858Z,10.95
2023-04-29T07:17:15.168Z,11.00
2023-04-29T07:19:42.514Z,11.05
2023-04-29T07:22:10.892Z,11.08
2023-04-29T07:24:37.577Z,11.10
2023-04-29T07:27:04.938Z,11.15
2023-04-29T07:29:31.632Z,11.18
2023-04-29T07:31:58.877Z,11.25
2023-04-29T07:34:26.750Z,11.32
2023-04-29T07:36:54.025Z,11.34
2023-04-29T07:39:20.861Z,11.31
2023-04-29T07:41:55.363Z,11.39
2023-04-29T07:44:22.376Z,11.49
2023-04-29T07:46:49.645Z,11.56
2023-04-29T07:49:16.725Z,11.67
2023-04-29T07:51:45.668Z,11.62
2023-04-29T07:54:12.301Z,11.58
2023-04-29T07:56:39.507Z,11.59
2023-04-29T07:59:07.409Z,11.67
2023-04-29T08:01:34.909Z,11.75
2023-04-29T08:04:01.774Z,11.81
2023-04-29T08:06:29.577Z,11.88
2023-04-29T08:08:56.520Z,11.91
2023-04-29T08:11:24.716Z,11.81
2023-04-29T08:13:51.285Z,11.86
2023-04-29T08:16:18.776Z,11.87
2023-04-29T08:18:45.415Z,11.91
2023-04-29T08:21:12.579Z,11.94
2023-04-29T08:23:40.318Z,12.00
2023-04-29T08:26:07.260Z,11.99
2023-04-29T08:28:33.845Z,11.99
2023-04-29T08:31:01.093Z,12.01
2023-04-29T08:33:27.677Z,11.93
2023-04-29T08:36:04.124Z,11.97
2023-04-29T08:38:31.072Z,12.06
2023-04-29T08:40:58.742Z,12.15
2023-04-29T08:43:26.681Z,12.26
2023-04-29T08:45:54.535Z,12.28
2023-04-29T08:48:21.997Z,12.27
2023-04-29T08:50:49.295Z,12.22
2023-04-29T08:53:15.957Z,12.24
2023-04-29T08:55:48.551Z,12.32
2023-04-29T08:58:16.383Z,12.28
2023-04-29T09:00:44.843Z,12.31
2023-04-29T09:03:26.916Z,12.35
2023-04-29T09:05:56.451Z,12.42
2023-04-29T09:08:24.344Z,12.41
2023-04-29T09:10:53.102Z,12.36
2023-04-29T09:13:27.261Z,12.44
2023-04-29T09:15:54.809Z,12.53
2023-04-29T09:18:44.766Z,12.58
2023-04-29T09:21:19.072Z,12.62
2023-04-29T09:23:48.984Z,12.79
2023-04-29T09:26:16.900Z,12.96
2023-04-29T09:28:45.043Z,13.13
2023-04-29T09:31:12.868Z,13.32
2023-04-29T09:33:57.069Z,13.40
2023-04-29T09:36:41.140Z,13.33
2023-04-29T09:39:15.568Z,13.25
2023-04-29T09:41:54.249Z,13.31
2023-04-29T09:44:27.533Z,13.49
2023-04-29T09:47:03.135Z,13.57
2023-04-29T09:49:36.137Z,13.64
2023-04-29T09:52:08.064Z,13.61
2023-04-29T09:54:37.159Z,13.69
2023-04-29T09:57:07.401Z,13.72
2023-04-29T09:59:36.489Z,13.78
2023-04-29T10:02:11.895Z,13.90
2023-04-29T10:04:41.110Z,13.99
2023-04-29T10:07:09.302Z,14.05
2023-04-29T10:09:39.480Z,14.01
2023-04-29T10:12:07.444Z,13.94
2023-04-29T10:14:43.084Z,14.00
2023-04-29T10:17:26.807Z,14.07
2023-04-29T10:20:06.822Z,14.11
2023-04-29T10:22:45.924Z,14.11
2023-04-29T10:25:15.451Z,14.06
2023-04-29T10:27:46.097Z,14.10
2023-04-29T10:30:20.369Z,14.21
2023-04-29T10:32:52.133Z,14.25
2023-04-29T10:35:26.052Z,14.20
2023-04-29T10:37:54.159Z,14.22
2023-04-29T10:40:46.978Z,14.25
2023-04-29T10:43:13.768Z,14.11
2023-04-29T10:45:40.892Z,14.16
2023-04-29T10:48:13.051Z,14.27
2023-04-29T10:50:49.549Z,14.38
2023-04-29T10:53:25.494Z,14.53
2023-04-29T10:55:59.508Z,14.59
2023-04-29T10:58:39.219Z,14.55
2023-04-29T11:01:08.218Z,14.47
2023-04-29T11:03:49.500Z,14.50
2023-04-29T11:06:16.701Z,14.38
2023-04-29T11:08:43.669Z,14.20
2023-04-29T11:11:10.440Z,14.30
2023-04-29T11:13:40.738Z,14.33
2023-04-29T11:16:09.983Z,14.33
2023-04-29T11:18:57.599Z,14.31
2023-04-29T11:21:24.181Z,14.36
2023-04-29T11:23:52.530Z,14.37
2023-04-29T11:26:22.867Z,14.57
2023-04-29T11:28:52.332Z,14.72
2023-04-29T11:31:19.061Z,14.78
2023-04-29T11:33:47.414Z,15.02
2023-04-29T11:36:14.312Z,15.17
2023-04-29T11:38:42.013Z,15.29
2023-04-29T11:41:11.418Z,15.40
2023-04-29T11:43:39.756Z,15.54
2023-04-29T11:46:15.958Z,15.56
2023-04-29T11:48:47.944Z,15.68
2023-04-29T11:51:19.381Z,15.54
2023-04-29T11:53:46.521Z,15.49
2023-04-29T11:56:13.956Z,15.52
2023-04-29T11:58:43.154Z,15.37
2023-04-29T12:01:10.705Z,15.30
2023-04-29T12:03:37.597Z,15.15
2023-04-29T12:06:06.641Z,15.22
2023-04-29T12:08:34.959Z,15.24
2023-04-29T12:11:02.143Z,15.18
2023-04-29T12:13:30.565Z,15.23
2023-04-29T12:15:59.206Z,15.36
2023-04-29T12:18:27.732Z,15.49
2023-04-29T12:20:58.360Z,15.63
2023-04-29T12:23:28.735Z,15.69
2023-04-29T12:26:00.898Z,15.77
2023-04-29T12:28:27.626Z,15.87
2023-04-29T12:30:56.905Z,15.91
2023-04-29T12:33:28.776Z,15.81
2023-04-29T12:35:58.240Z,15.83
2023-04-29T12:38:31.059Z,15.89
2023-04-29T12:41:05.434Z,16.05
2023-04-29T12:43:36.716Z,15.90
2023-04-29T12:46:08.610Z,15.87
2023-04-29T12:48:41.824Z,15.84
2023-04-29T12:51:10.111Z,15.74
2023-04-29T12:53:38.054Z,15.70
2023-04-29T12:56:08.046Z,15.57
2023-04-29T12:58:35.323Z,15.53
2023-04-29T13:01:02.646Z,15.42
2023-04-29T13:03:29.519Z,15.40
2023-04-29T13:05:57.574Z,15.27
2023-04-29T13:08:24.281Z,15.21
2023-04-29T13:10:51.876Z,15.22
2023-04-29T13:13:18.521Z,15.16
2023-04-29T13:15:45.737Z,15.19
2023-04-29T13:18:12.410Z,15.18
2023-04-29T13:20:42.221Z,15.13
2023-04-29T13:23:10.088Z,15.12
2023-04-29T13:25:37.323Z,15.10
2023-04-29T13:28:05.431Z,15.12
2023-04-29T13:30:33.481Z,15.16
2023-04-29T13:33:07.943Z,15.14
2023-04-29T13:35:39.974Z,15.04
2023-04-29T13:38:07.950Z,14.99
2023-04-29T13:40:38.726Z,14.99
2023-04-29T13:43:09.950Z,14.99
2023-04-29T13:45:41.266Z,14.88
2023-04-29T13:48:25.935Z,14.85
2023-04-29T13:51:45.060Z,14.82
2023-04-29T13:54:38.256Z,14.78
2023-04-29T14:04:01.880Z,15.01
2023-04-29T14:06:28.922Z,15.11
2023-04-29T14:08:56.193Z,15.13
2023-04-29T14:11:22.811Z,14.98
2023-04-29T14:13:50.187Z,14.81
2023-04-29T14:16:17.369Z,14.69
2023-04-29T14:18:44.020Z,14.66
2023-04-29T14:21:11.576Z,14.69
2023-04-29T14:23:38.309Z,14.73
2023-04-29T14:26:23.025Z,14.80
2023-04-29T14:28:57.982Z,14.88
2023-04-29T14:31:29.230Z,14.88
2023-04-29T14:33:57.468Z,14.89
2023-04-29T14:36:24.319Z,15.00
2023-04-29T14:38:51.608Z,15.03
2023-04-29T14:41:18.408Z,15.02
2023-04-29T14:43:46.135Z,15.00
2023-04-29T14:46:13.184Z,15.05
2023-04-29T14:48:41.535Z,15.13
2023-04-29T14:51:08.558Z,15.21
2023-04-29T14:53:35.494Z,15.28
2023-04-29T14:56:03.903Z,15.38
2023-04-29T14:58:30.985Z,15.38
2023-04-29T15:00:57.622Z,15.41
2023-04-29T15:03:25.090Z,15.45
2023-04-29T15:05:52.175Z,15.49
2023-04-29T15:08:19.863Z,15.54
2023-04-29T15:10:47.565Z,15.63
2023-04-29T15:13:14.420Z,15.64
2023-04-29T15:15:42.191Z,15.63
2023-04-29T15:18:09.167Z,15.66
2023-04-29T15:20:37.923Z,15.75
2023-04-29T15:23:05.692Z,15.75
2023-04-29T15:25:34.849Z,15.80
2023-04-29T15:28:03.823Z,15.73
2023-04-29T15:30:31.181Z,15.68
2023-04-29T15:32:57.856Z,15.60
2023-04-29T15:35:25.176Z,15.54
2023-04-29T15:37:51.792Z,15.46
2023-04-29T15:40:19.004Z,15.37
2023-04-29T15:42:45.692Z,15.32
2023-04-29T15:45:13.063Z,15.34
2023-04-29T15:47:39.795Z,15.30
2023-04-29T15:50:07.851Z,15.28
2023-04-29T15:52:34.437Z,15.24
2023-04-29T15:55:01.625Z,15.22
2023-04-29T15:57:28.290Z,15.17
2023-04-29T15:59:55.771Z,15.17
2023-04-29T16:02:22.624Z,15.17
2023-04-29T16:04:49.883Z,15.17
2023-04-29T16:07:17.660Z,15.12
2023-04-29T16:09:44.977Z,15.08
2023-04-29T16:12:13.030Z,15.06
2023-04-29T16:14:40.266Z,15.00
2023-04-29T16:17:07.171Z,15.06
2023-04-29T16:19:36.877Z,15.12
2023-04-29T16:22:04.425Z,15.19
2023-04-29T16:24:31.698Z,15.22
2023-04-29T16:26:58.962Z,15.19
2023-04-29T16:29:26.545Z,15.15
2023-04-29T16:31:53.269Z,14.96
2023-04-29T16:34:20.734Z,14.82
2023-04-29T16:36:47.316Z,14.71
2023-04-29T16:39:14.684Z,14.68
2023-04-29T16:41:41.619Z,14.66
2023-04-29T16:44:09.237Z,14.64
2023-04-29T16:46:36.143Z,14.63
2023-04-29T16:49:03.533Z,14.59
2023-04-29T16:51:30.194Z,14.59
2023-04-29T16:53:57.426Z,14.56
2023-04-29T16:56:24.031Z,14.45
2023-04-29T16:58:51.441Z,14.40
2023-04-29T17:01:20.957Z,14.38
2023-04-29T17:03:48.677Z,14.39
2023-04-29T17:06:16.046Z,14.38
2023-04-29T17:08:44.757Z,14.37
2023-04-29T17:11:11.626Z,14.35
2023-04-29T17:13:38.873Z,14.30
2023-04-29T17:16:06.313Z,14.23
2023-04-29T17:18:33.631Z,14.19
2023-04-29T17:21:00.254Z,14.18
2023-04-29T17:23:27.768Z,14.17
2023-04-29T17:25:55.379Z,14.16
2023-04-29T17:28:22.553Z,14.13
2023-04-29T17:30:49.707Z,14.09
2023-04-29T17:33:17.877Z,14.08
2023-04-29T17:35:45.231Z,14.02
2023-04-29T17:38:12.610Z,13.97
2023-04-29T17:40:39.320Z,13.95
2023-04-29T17:43:06.558Z,13.92
2023-04-29T17:45:33.288Z,13.90
2023-04-29T17:48:00.872Z,13.86
2023-04-29T17:50:27.725Z,13.82
2023-04-29T17:52:55.000Z,13.81
2023-04-29T17:55:21.763Z,13.78
2023-04-29T17:57:49.063Z,13.77
2023-04-29T18:00:16.242Z,13.76
2023-04-29T18:02:43.589Z,13.72
2023-04-29T18:05:10.361Z,13.72
2023-04-29T18:07:37.270Z,13.69
2023-04-29T18:10:05.787Z,13.65
2023-04-29T18:12:33.378Z,13.56
2023-04-29T18:15:00.677Z,13.49
2023-04-29T18:17:27.939Z,13.46
2023-04-29T18:19:54.719Z,13.39
2023-04-29T18:22:22.266Z,13.33
2023-04-29T18:24:49.626Z,13.26
2023-04-29T18:27:16.883Z,13.21
2023-04-29T18:29:44.936Z,13.16
2023-04-29T18:32:12.229Z,13.11
2023-04-29T18:34:38.927Z,13.04
2023-04-29T18:37:06.244Z,12.97
2023-04-29T18:39:32.951Z,12.90
2023-04-29T18:42:00.593Z,12.84
2023-04-29T18:44:28.048Z,12.77
2023-04-29T18:46:55.438Z,12.68
2023-04-29T18:49:22.000Z,12.60
2023-04-29T18:51:50.041Z,12.53
2023-04-29T18:54:19.845Z,12.46
2023-04-29T18:56:49.216Z,12.40
2023-04-29T18:59:19.198Z,12.33
2023-04-29T19:01:48.186Z,12.26
2023-04-29T19:04:15.404Z,12.19
2023-04-29T19:06:43.173Z,12.13
2023-04-29T19:09:11.080Z,12.07
2023-04-29T19:11:38.421Z,12.02
2023-04-29T19:14:05.840Z,11.96
2023-04-29T19:16:36.195Z,11.89
2023-04-29T19:19:04.171Z,11.82
2023-04-29T19:21:33.397Z,11.77
2023-04-29T19:24:00.335Z,11.72
2023-04-29T19:26:27.664Z,11.66
2023-04-29T19:28:54.341Z,11.61
2023-04-29T19:31:21.889Z,11.54
2023-04-29T19:33:48.681Z,11.51
2023-04-29T19:36:15.917Z,11.46
2023-04-29T19:38:42.553Z,11.39
2023-04-29T19:41:10.307Z,11.32
2023-04-29T19:43:36.896Z,11.28
2023-04-29T19:46:04.089Z,11.23
2023-04-29T19:48:30.864Z,11.16
2023-04-29T19:50:59.884Z,11.10
2023-04-29T19:53:27.417Z,11.04
2023-04-29T19:55:54.629Z,11.00
2023-04-29T19:58:21.284Z,10.95
2023-04-29T20:00:48.816Z,10.90
2023-04-29T20:03:15.867Z,10.83
2023-04-29T20:05:43.582Z,10.78
2023-04-29T20:08:10.192Z,10.74
2023-04-29T20:10:37.136Z,10.68
2023-04-29T20:13:03.692Z,10.65
2023-04-29T20:15:31.046Z,10.60
2023-04-29T20:17:58.125Z,10.55
2023-04-29T20:20:26.066Z,10.50
2023-04-29T20:22:52.786Z,10.45
2023-04-29T20:25:20.809Z,10.39
2023-04-29T20:27:47.368Z,10.31
